This is the latest recevied weather packets stored in our database for station/object SQ6ELQ-11. If no packets are shown the sender has not sent any weather packets the latest 10 day(s).
| Time | Temp. | Humidity | Pressure | Rain* | Wind** | Luminosity | Snow |
|---|---|---|---|---|---|---|---|
| 1777925213 | 12.78° C | 53% | 1013.6 hPa | 0 mm | - | - | - |
| 1777924182 | 13.89° C | 51% | 1013.6 hPa | 0 mm | - | - | - |
| 1777923081 | 14.44° C | 50% | 1013.6 hPa | 0 mm | - | - | - |
| 1777922071 | 15° C | 48% | 1013.6 hPa | 0 mm | - | - | - |
| 1777920886 | 16.11° C | 46% | 1013.5 hPa | 0 mm | - | - | - |
| 1777919812 | 17.22° C | 40% | 1013.4 hPa | 0 mm | - | - | - |
| 1777918721 | 18.33° C | 39% | 1013.3 hPa | 0 mm | - | - | - |
| 1777917691 | 19.44° C | 33% | 1013.2 hPa | 0 mm | - | - | - |
| 1777916580 | 20.56° C | 31% | 1013.1 hPa | 0 mm | - | - | - |
| 1777915583 | 20.56° C | 29% | 1013 hPa | 0 mm | - | - | - |
| 1777914451 | 22.22° C | 27% | 1012.9 hPa | 0 mm | - | - | - |
| 1777913358 | 23.89° C | 25% | 1012.8 hPa | 0 mm | - | - | - |
| 1777912351 | 23.89° C | 24% | 1012.9 hPa | 0 mm | - | - | - |
| 1777911239 | 23.89° C | 25% | 1012.8 hPa | 0 mm | - | - | - |
| 1777910151 | 23.89° C | 23% | 1012.8 hPa | 0 mm | - | - | - |
| 1777909101 | 24.44° C | 22% | 1012.9 hPa | 0 mm | - | - | - |
| 1777908056 | 24.44° C | 22% | 1013 hPa | 0 mm | - | - | - |
| 1777907027 | 25° C | 23% | 1013.1 hPa | 0 mm | - | - | - |
| 1777905990 | 25° C | 22% | 1013.1 hPa | 0 mm | - | - | - |
| 1777904831 | 25.56° C | 22% | 1013.3 hPa | 0 mm | - | - | - |
| 1777903796 | 23.33° C | 25% | 1013.4 hPa | 0 mm | - | - | - |
| 1777902792 | 24.44° C | 22% | 1013.3 hPa | 0 mm | - | - | - |
| 1777901686 | 25.56° C | 23% | 1013.4 hPa | 0 mm | - | - | - |
| 1777900610 | 25.56° C | 24% | 1013.5 hPa | 0 mm | - | - | - |
| 1777899496 | 25° C | 25% | 1013.6 hPa | 0 mm | - | - | - |
* Rain latest hour (hover to see other rain measurements)
** Current wind speed in m/s (hover to see current wind gust speed)